Angel Fire, New Mexico
Current Conditions -  °F | °C
As of 11:15 PM on Tuesday 25 Nov 2014 (Local Time) from KAXX Reporting Station
Clear Clear  
Wind Chill: 17°   Ceiling: Unl
Heat Index: 28°   Visibility: 10mi
Dew Point: 10°   Wind: 13mph
Humidity: 47%   Direction: 250°WSW
Pressure: 30.25"   Gusts: 17mph
Location:  36.39°N, 105.29°W
Report Text: KAXX 260615Z AUTO 25011G15KT 10SM CLR M02/M12 A3025 RMK AO2 T10251124
Loading
Personal Weather Stations






























Interactive Weather Map New forecast layout! Learn more

10-Day Weather Forecast

Advertisements
Track Severe Weather on mobile